sensor_id;sensor_type;location;lat;lon;timestamp;pressure;altitude;pressure_sealevel;temperature;humidity
71145;BME280;58812;47.698;17.726;2023-10-31T00:00:31;98944.44;;;14.77;83.25
71145;BME280;58812;47.698;17.726;2023-10-31T00:02:57;98936.34;;;14.77;83.60
71145;BME280;58812;47.698;17.726;2023-10-31T00:05:22;98927.84;;;14.74;83.95
71145;BME280;58812;47.698;17.726;2023-10-31T00:07:47;98932.41;;;14.73;83.83
71145;BME280;58812;47.698;17.726;2023-10-31T00:10:13;98924.94;;;14.68;84.14
71145;BME280;58812;47.698;17.726;2023-10-31T00:12:38;98927.00;;;14.66;84.43
71145;BME280;58812;47.698;17.726;2023-10-31T00:15:05;98927.84;;;14.67;84.25
71145;BME280;58812;47.698;17.726;2023-10-31T00:17:30;98908.78;;;14.68;84.06
71145;BME280;58812;47.698;17.726;2023-10-31T00:19:56;98901.72;;;14.67;84.06
71145;BME280;58812;47.698;17.726;2023-10-31T00:22:21;98908.16;;;14.66;84.15
71145;BME280;58812;47.698;17.726;2023-10-31T00:24:47;98898.44;;;14.65;84.21
71145;BME280;58812;47.698;17.726;2023-10-31T00:27:12;98894.69;;;14.66;83.91
71145;BME280;58812;47.698;17.726;2023-10-31T00:29:38;98899.88;;;14.68;83.84
71145;BME280;58812;47.698;17.726;2023-10-31T00:32:04;98885.16;;;14.71;83.81
71145;BME280;58812;47.698;17.726;2023-10-31T00:34:29;98888.87;;;14.69;83.62
71145;BME280;58812;47.698;17.726;2023-10-31T00:36:55;98885.16;;;14.71;83.68
71145;BME280;58812;47.698;17.726;2023-10-31T00:39:20;98874.78;;;14.67;83.74
71145;BME280;58812;47.698;17.726;2023-10-31T00:41:47;98871.50;;;14.65;83.86
71145;BME280;58812;47.698;17.726;2023-10-31T00:44:13;98868.59;;;14.67;83.76
71145;BME280;58812;47.698;17.726;2023-10-31T00:46:38;98864.63;;;14.69;83.39
71145;BME280;58812;47.698;17.726;2023-10-31T00:49:04;98863.63;;;14.71;83.27
71145;BME280;58812;47.698;17.726;2023-10-31T00:51:29;98851.38;;;14.75;82.75
71145;BME280;58812;47.698;17.726;2023-10-31T00:53:55;98852.19;;;14.82;82.33
71145;BME280;58812;47.698;17.726;2023-10-31T00:56:20;98851.56;;;14.86;81.82
71145;BME280;58812;47.698;17.726;2023-10-31T00:58:46;98854.25;;;14.93;81.02
71145;BME280;58812;47.698;17.726;2023-10-31T01:01:11;98846.19;;;15.06;80.04
71145;BME280;58812;47.698;17.726;2023-10-31T01:03:37;98841.63;;;15.07;79.61
71145;BME280;58812;47.698;17.726;2023-10-31T01:06:03;98839.53;;;15.09;79.44
71145;BME280;58812;47.698;17.726;2023-10-31T01:08:28;98833.50;;;15.13;79.07
71145;BME280;58812;47.698;17.726;2023-10-31T01:10:55;98832.88;;;15.25;78.45
71145;BME280;58812;47.698;17.726;2023-10-31T01:13:20;98832.44;;;15.28;78.01
71145;BME280;58812;47.698;17.726;2023-10-31T01:15:45;98823.28;;;15.29;78.14
71145;BME280;58812;47.698;17.726;2023-10-31T01:18:11;98824.12;;;15.29;78.00
71145;BME280;58812;47.698;17.726;2023-10-31T01:20:37;98812.56;;;15.15;78.90
71145;BME280;58812;47.698;17.726;2023-10-31T01:23:03;98809.03;;;15.15;78.71
71145;BME280;58812;47.698;17.726;2023-10-31T01:25:29;98811.31;;;15.11;78.97
71145;BME280;58812;47.698;17.726;2023-10-31T01:27:54;98800.53;;;15.11;78.96
71145;BME280;58812;47.698;17.726;2023-10-31T01:30:19;98802.81;;;15.14;78.75
71145;BME280;58812;47.698;17.726;2023-10-31T01:32:45;98801.56;;;15.10;78.76
71145;BME280;58812;47.698;17.726;2023-10-31T01:35:10;98788.09;;;15.10;78.56
71145;BME280;58812;47.698;17.726;2023-10-31T01:37:36;98788.09;;;15.10;78.48
71145;BME280;58812;47.698;17.726;2023-10-31T01:40:02;98779.41;;;15.08;78.60
71145;BME280;58812;47.698;17.726;2023-10-31T01:42:29;98782.69;;;15.10;78.37
71145;BME280;58812;47.698;17.726;2023-10-31T01:44:54;98780.44;;;15.07;78.51
71145;BME280;58812;47.698;17.726;2023-10-31T01:47:20;98776.94;;;15.07;78.61
71145;BME280;58812;47.698;17.726;2023-10-31T01:49:45;98773.78;;;15.10;78.06
71145;BME280;58812;47.698;17.726;2023-10-31T01:52:11;98771.91;;;15.10;77.70
71145;BME280;58812;47.698;17.726;2023-10-31T01:54:36;98769.44;;;15.09;77.91
71145;BME280;58812;47.698;17.726;2023-10-31T01:57:04;98760.75;;;15.07;77.96
71145;BME280;58812;47.698;17.726;2023-10-31T01:59:30;98760.94;;;15.05;78.04
71145;BME280;58812;47.698;17.726;2023-10-31T02:01:57;98761.34;;;15.09;77.59
71145;BME280;58812;47.698;17.726;2023-10-31T02:04:23;98761.34;;;15.09;77.46
71145;BME280;58812;47.698;17.726;2023-10-31T02:06:49;98767.38;;;15.04;77.62
71145;BME280;58812;47.698;17.726;2023-10-31T02:09:15;98772.16;;;15.02;78.04
71145;BME280;58812;47.698;17.726;2023-10-31T02:11:40;98756.22;;;14.94;78.41
71145;BME280;58812;47.698;17.726;2023-10-31T02:14:06;98759.75;;;14.94;78.28
71145;BME280;58812;47.698;17.726;2023-10-31T02:16:31;98769.06;;;14.92;78.65
71145;BME280;58812;47.698;17.726;2023-10-31T02:18:57;98750.84;;;14.87;78.56
71145;BME280;58812;47.698;17.726;2023-10-31T02:21:24;98753.53;;;14.87;78.31
71145;BME280;58812;47.698;17.726;2023-10-31T02:24:00;98755.84;;;14.84;78.61
71145;BME280;58812;47.698;17.726;2023-10-31T02:26:30;98749.41;;;14.85;78.33
71145;BME280;58812;47.698;17.726;2023-10-31T02:28:56;98755.84;;;14.84;78.47
71145;BME280;58812;47.698;17.726;2023-10-31T02:31:21;98752.94;;;14.79;78.84
71145;BME280;58812;47.698;17.726;2023-10-31T02:33:47;98752.94;;;14.79;78.81
71145;BME280;58812;47.698;17.726;2023-10-31T02:36:12;98752.13;;;14.78;78.79
71145;BME280;58812;47.698;17.726;2023-10-31T02:38:37;98752.72;;;14.80;78.13
71145;BME280;58812;47.698;17.726;2023-10-31T02:41:03;98761.63;;;14.81;78.07
71145;BME280;58812;47.698;17.726;2023-10-31T02:43:28;98752.94;;;14.79;77.91
71145;BME280;58812;47.698;17.726;2023-10-31T02:45:54;98770.75;;;14.80;78.10
71145;BME280;58812;47.698;17.726;2023-10-31T02:48:19;98776.16;;;14.80;78.13
71145;BME280;58812;47.698;17.726;2023-10-31T02:50:45;98777.81;;;14.74;78.83
71145;BME280;58812;47.698;17.726;2023-10-31T02:53:11;98771.19;;;14.70;79.14
71145;BME280;58812;47.698;17.726;2023-10-31T02:55:37;98770.78;;;14.66;79.79
71145;BME280;58812;47.698;17.726;2023-10-31T02:58:02;98751.50;;;14.63;79.82
71145;BME280;58812;47.698;17.726;2023-10-31T03:00:27;98771.00;;;14.65;79.44
71145;BME280;58812;47.698;17.726;2023-10-31T03:02:53;98773.69;;;14.65;79.44
71145;BME280;58812;47.698;17.726;2023-10-31T03:05:18;98781.97;;;14.63;79.49
71145;BME280;58812;47.698;17.726;2023-10-31T03:07:44;98778.66;;;14.61;80.55
71145;BME280;58812;47.698;17.726;2023-10-31T03:10:10;98789.84;;;14.58;80.73
71145;BME280;58812;47.698;17.726;2023-10-31T03:12:35;98790.28;;;14.55;80.69
71145;BME280;58812;47.698;17.726;2023-10-31T03:15:02;98784.28;;;14.53;81.44
71145;BME280;58812;47.698;17.726;2023-10-31T03:17:29;98787.78;;;14.54;80.66
71145;BME280;58812;47.698;17.726;2023-10-31T03:19:54;98788.19;;;14.51;81.06
71145;BME280;58812;47.698;17.726;2023-10-31T03:22:19;98776.00;;;14.48;81.37
71145;BME280;58812;47.698;17.726;2023-10-31T03:24:45;98768.94;;;14.47;81.55
71145;BME280;58812;47.698;17.726;2023-10-31T03:27:11;98758.56;;;14.44;81.25
71145;BME280;58812;47.698;17.726;2023-10-31T03:29:36;98765.38;;;14.40;81.85
71145;BME280;58812;47.698;17.726;2023-10-31T03:32:02;98759.37;;;14.38;81.96
71145;BME280;58812;47.698;17.726;2023-10-31T03:34:27;98758.56;;;14.31;82.10
71145;BME280;58812;47.698;17.726;2023-10-31T03:36:52;98757.53;;;14.32;82.10
71145;BME280;58812;47.698;17.726;2023-10-31T03:39:18;98757.53;;;14.32;81.72
71145;BME280;58812;47.698;17.726;2023-10-31T03:41:43;98746.75;;;14.32;81.71
71145;BME280;58812;47.698;17.726;2023-10-31T03:44:09;98752.13;;;14.32;81.79
71145;BME280;58812;47.698;17.726;2023-10-31T03:46:35;98754.84;;;14.32;81.61
71145;BME280;58812;47.698;17.726;2023-10-31T03:49:00;98746.34;;;14.35;80.63
71145;BME280;58812;47.698;17.726;2023-10-31T03:51:26;98738.47;;;14.40;79.56
71145;BME280;58812;47.698;17.726;2023-10-31T03:53:51;98735.75;;;14.40;79.40
71145;BME280;58812;47.698;17.726;2023-10-31T03:56:16;98730.59;;;14.45;78.19
71145;BME280;58812;47.698;17.726;2023-10-31T03:58:43;98730.00;;;14.50;77.54
71145;BME280;58812;47.698;17.726;2023-10-31T04:01:09;98713.22;;;14.54;76.69
71145;BME280;58812;47.698;17.726;2023-10-31T04:03:34;98710.72;;;14.59;76.02
71145;BME280;58812;47.698;17.726;2023-10-31T04:05:59;98706.56;;;14.63;75.79
71145;BME280;58812;47.698;17.726;2023-10-31T04:08:25;98696.59;;;14.77;73.72
71145;BME280;58812;47.698;17.726;2023-10-31T04:10:50;98693.47;;;14.74;74.21
71145;BME280;58812;47.698;17.726;2023-10-31T04:13:16;98694.72;;;14.78;73.04
71145;BME280;58812;47.698;17.726;2023-10-31T04:15:41;98686.62;;;14.78;72.91
71145;BME280;58812;47.698;17.726;2023-10-31T04:18:07;98679.16;;;14.80;72.61
71145;BME280;58812;47.698;17.726;2023-10-31T04:20:32;98684.13;;;14.83;71.77
71145;BME280;58812;47.698;17.726;2023-10-31T04:22:58;98685.34;;;14.87;71.43
71145;BME280;58812;47.698;17.726;2023-10-31T04:25:23;98685.25;;;15.13;68.46
71145;BME280;58812;47.698;17.726;2023-10-31T04:27:49;98667.78;;;15.22;67.79
71145;BME280;58812;47.698;17.726;2023-10-31T04:30:14;98667.78;;;15.22;67.44
71145;BME280;58812;47.698;17.726;2023-10-31T04:32:40;98662.75;;;15.33;66.45
71145;BME280;58812;47.698;17.726;2023-10-31T04:35:05;98672.25;;;15.35;66.58
71145;BME280;58812;47.698;17.726;2023-10-31T04:37:31;98670.41;;;15.36;66.07
71145;BME280;58812;47.698;17.726;2023-10-31T04:39:56;98669.78;;;15.34;66.43
71145;BME280;58812;47.698;17.726;2023-10-31T04:42:22;98681.34;;;15.41;65.40
71145;BME280;58812;47.698;17.726;2023-10-31T04:44:47;98683.88;;;15.42;65.41
71145;BME280;58812;47.698;17.726;2023-10-31T04:47:13;98702.94;;;15.41;65.46
71145;BME280;58812;47.698;17.726;2023-10-31T04:49:38;98694.28;;;15.32;65.83
71145;BME280;58812;47.698;17.726;2023-10-31T04:52:04;98703.38;;;15.38;65.88
71145;BME280;58812;47.698;17.726;2023-10-31T04:54:29;98706.72;;;15.33;65.69
71145;BME280;58812;47.698;17.726;2023-10-31T04:56:55;98715.03;;;15.32;66.04
71145;BME280;58812;47.698;17.726;2023-10-31T04:59:20;98716.72;;;15.26;66.56
71145;BME280;58812;47.698;17.726;2023-10-31T05:01:49;98719.00;;;15.22;66.88
71145;BME280;58812;47.698;17.726;2023-10-31T05:04:16;98731.47;;;15.17;67.26
71145;BME280;58812;47.698;17.726;2023-10-31T05:06:42;98747.44;;;15.12;67.70
71145;BME280;58812;47.698;17.726;2023-10-31T05:09:07;98754.94;;;15.10;67.99
71145;BME280;58812;47.698;17.726;2023-10-31T05:11:33;98753.69;;;15.06;68.05
71145;BME280;58812;47.698;17.726;2023-10-31T05:13:58;98756.59;;;15.04;68.24
71145;BME280;58812;47.698;17.726;2023-10-31T05:16:24;98756.59;;;15.04;68.54
71145;BME280;58812;47.698;17.726;2023-10-31T05:18:50;98762.19;;;15.09;67.80
71145;BME280;58812;47.698;17.726;2023-10-31T05:21:19;98749.38;;;14.98;68.81
71145;BME280;58812;47.698;17.726;2023-10-31T05:23:46;98743.37;;;14.96;68.57
71145;BME280;58812;47.698;17.726;2023-10-31T05:26:11;98734.06;;;14.85;69.71
71145;BME280;58812;47.698;17.726;2023-10-31T05:28:36;98731.38;;;14.85;69.65
71145;BME280;58812;47.698;17.726;2023-10-31T05:31:02;98730.75;;;14.90;69.05
71145;BME280;58812;47.698;17.726;2023-10-31T05:33:28;98728.06;;;14.83;69.59
71145;BME280;58812;47.698;17.726;2023-10-31T05:35:54;98729.31;;;14.81;69.87
71145;BME280;58812;47.698;17.726;2023-10-31T05:38:19;98728.47;;;14.80;69.60
71145;BME280;58812;47.698;17.726;2023-10-31T05:40:45;98729.75;;;14.78;69.87
71145;BME280;58812;47.698;17.726;2023-10-31T05:43:10;98709.03;;;14.72;69.91
71145;BME280;58812;47.698;17.726;2023-10-31T05:45:36;98710.09;;;14.71;70.13
71145;BME280;58812;47.698;17.726;2023-10-31T05:48:01;98707.78;;;14.67;70.02
71145;BME280;58812;47.698;17.726;2023-10-31T05:50:27;98712.75;;;14.64;70.23
71145;BME280;58812;47.698;17.726;2023-10-31T05:52:52;98720.84;;;14.64;70.31
71145;BME280;58812;47.698;17.726;2023-10-31T05:55:18;98723.16;;;14.60;70.66
71145;BME280;58812;47.698;17.726;2023-10-31T05:57:43;98733.91;;;14.60;70.41
71145;BME280;58812;47.698;17.726;2023-10-31T06:00:09;98740.53;;;14.58;70.46
71145;BME280;58812;47.698;17.726;2023-10-31T06:02:35;98743.87;;;14.53;71.32
71145;BME280;58812;47.698;17.726;2023-10-31T06:05:00;98745.53;;;14.48;71.69
71145;BME280;58812;47.698;17.726;2023-10-31T06:07:26;98754.22;;;14.43;71.88
71145;BME280;58812;47.698;17.726;2023-10-31T06:09:51;98764.97;;;14.43;72.28
71145;BME280;58812;47.698;17.726;2023-10-31T06:12:17;98763.31;;;14.42;72.16
71145;BME280;58812;47.698;17.726;2023-10-31T06:14:42;98761.25;;;14.44;71.65
71145;BME280;58812;47.698;17.726;2023-10-31T06:17:08;98755.88;;;14.51;71.06
71145;BME280;58812;47.698;17.726;2023-10-31T06:19:36;98765.44;;;14.53;71.31
71145;BME280;58812;47.698;17.726;2023-10-31T06:22:02;98759.59;;;14.63;70.67
71145;BME280;58812;47.698;17.726;2023-10-31T06:24:28;98764.97;;;14.69;69.83
71145;BME280;58812;47.698;17.726;2023-10-31T06:26:53;98766.44;;;14.65;70.25
71145;BME280;58812;47.698;17.726;2023-10-31T06:29:19;98778.25;;;14.71;70.40
71145;BME280;58812;47.698;17.726;2023-10-31T06:31:44;98774.06;;;14.82;69.72
71145;BME280;58812;47.698;17.726;2023-10-31T06:34:10;98771.38;;;14.82;69.91
71145;BME280;58812;47.698;17.726;2023-10-31T06:36:35;98770.75;;;14.86;69.77
71145;BME280;58812;47.698;17.726;2023-10-31T06:39:00;98771.56;;;14.87;70.07
71145;BME280;58812;47.698;17.726;2023-10-31T06:41:26;98764.72;;;14.91;70.10
71145;BME280;58812;47.698;17.726;2023-10-31T06:43:51;98759.13;;;14.86;71.34
71145;BME280;58812;47.698;17.726;2023-10-31T06:46:17;98779.47;;;14.88;71.19
71145;BME280;58812;47.698;17.726;2023-10-31T06:48:42;98773.84;;;14.90;71.17
71145;BME280;58812;47.698;17.726;2023-10-31T06:51:07;98781.13;;;14.89;71.83
71145;BME280;58812;47.698;17.726;2023-10-31T06:53:33;98792.28;;;14.93;71.63
71145;BME280;58812;47.698;17.726;2023-10-31T06:55:58;98782.53;;;14.99;71.28
71145;BME280;58812;47.698;17.726;2023-10-31T06:58:24;98792.06;;;15.08;70.85
71145;BME280;58812;47.698;17.726;2023-10-31T07:00:49;98809.66;;;15.10;73.02
71145;BME280;58812;47.698;17.726;2023-10-31T07:03:15;98820.44;;;15.10;73.27
71145;BME280;58812;47.698;17.726;2023-10-31T07:05:41;98827.06;;;15.14;72.41
71145;BME280;58812;47.698;17.726;2023-10-31T07:08:07;98837.84;;;15.14;72.43
71145;BME280;58812;47.698;17.726;2023-10-31T07:10:33;98836.59;;;15.10;72.53
71145;BME280;58812;47.698;17.726;2023-10-31T07:12:59;98843.69;;;14.98;73.05
71145;BME280;58812;47.698;17.726;2023-10-31T07:15:27;98841.63;;;15.00;73.34
71145;BME280;58812;47.698;17.726;2023-10-31T07:17:53;98842.44;;;15.01;73.91
71145;BME280;58812;47.698;17.726;2023-10-31T07:20:18;98838.50;;;15.03;73.66
71145;BME280;58812;47.698;17.726;2023-10-31T07:22:44;98837.66;;;15.09;73.66
71145;BME280;58812;47.698;17.726;2023-10-31T07:25:09;98837.84;;;15.14;73.15
71145;BME280;58812;47.698;17.726;2023-10-31T07:27:35;98829.13;;;15.19;74.39
71145;BME280;58812;47.698;17.726;2023-10-31T07:30:02;98839.94;;;15.19;nan
71145;BME280;58812;47.698;17.726;2023-10-31T07:32:29;98850.69;;;15.26;74.62
71145;BME280;58812;47.698;17.726;2023-10-31T07:34:54;98846.94;;;15.27;74.96
71145;BME280;58812;47.698;17.726;2023-10-31T07:37:20;98867.06;;;15.31;74.09
71145;BME280;58812;47.698;17.726;2023-10-31T07:39:45;98879.28;;;15.33;73.95
71145;BME280;58812;47.698;17.726;2023-10-31T07:42:11;98896.28;;;15.34;74.34
71145;BME280;58812;47.698;17.726;2023-10-31T07:44:36;98903.78;;;15.32;74.63
71145;BME280;58812;47.698;17.726;2023-10-31T07:47:02;98902.53;;;15.28;73.84
71145;BME280;58812;47.698;17.726;2023-10-31T07:49:27;98902.53;;;15.28;74.70
71145;BME280;58812;47.698;17.726;2023-10-31T07:51:52;98903.56;;;15.27;74.71
71145;BME280;58812;47.698;17.726;2023-10-31T07:54:18;98898.66;;;16.26;82.81
71145;BME280;58812;47.698;17.726;2023-10-31T07:56:44;98917.91;;;16.68;84.64
71145;BME280;58812;47.698;17.726;2023-10-31T07:59:10;98914.66;;;17.78;93.24
71145;BME280;58812;47.698;17.726;2023-10-31T08:01:36;98926.56;;;17.52;86.78
71145;BME280;58812;47.698;17.726;2023-10-31T08:04:02;98920.09;;;18.08;89.65
71145;BME280;58812;47.698;17.726;2023-10-31T08:06:27;98920.75;;;18.40;89.67
71145;BME280;58812;47.698;17.726;2023-10-31T08:08:52;98911.66;;;18.34;87.09
71145;BME280;58812;47.698;17.726;2023-10-31T08:11:18;98914.53;;;18.51;86.58
71145;BME280;58812;47.698;17.726;2023-10-31T08:13:44;98910.97;;;18.69;82.75
71145;BME280;58812;47.698;17.726;2023-10-31T08:16:09;98906.62;;;18.80;82.81
71145;BME280;58812;47.698;17.726;2023-10-31T08:18:35;98905.13;;;18.65;77.03
71145;BME280;58812;47.698;17.726;2023-10-31T08:21:00;98909.13;;;19.05;81.24
71145;BME280;58812;47.698;17.726;2023-10-31T08:23:27;98913.25;;;19.42;80.61
71145;BME280;58812;47.698;17.726;2023-10-31T08:25:53;98927.19;;;19.11;75.64
71145;BME280;58812;47.698;17.726;2023-10-31T08:28:18;98915.16;;;18.05;71.36
71145;BME280;58812;47.698;17.726;2023-10-31T08:30:45;98912.88;;;17.28;69.72
71145;BME280;58812;47.698;17.726;2023-10-31T08:33:11;98913.00;;;17.15;71.31
71145;BME280;58812;47.698;17.726;2023-10-31T08:35:36;98916.72;;;16.96;71.72
71145;BME280;58812;47.698;17.726;2023-10-31T08:38:02;98914.78;;;16.71;73.54
71145;BME280;58812;47.698;17.726;2023-10-31T08:40:28;98920.81;;;16.35;72.72
71145;BME280;58812;47.698;17.726;2023-10-31T08:42:53;98925.94;;;16.12;74.01
71145;BME280;58812;47.698;17.726;2023-10-31T08:45:20;98928.94;;;15.97;75.37
71145;BME280;58812;47.698;17.726;2023-10-31T08:47:45;98930.41;;;15.86;76.10
71145;BME280;58812;47.698;17.726;2023-10-31T08:50:11;98941.00;;;15.81;76.97
71145;BME280;58812;47.698;17.726;2023-10-31T08:52:37;98934.00;;;15.73;77.43
71145;BME280;58812;47.698;17.726;2023-10-31T08:55:03;98941.66;;;15.70;78.17
71145;BME280;58812;47.698;17.726;2023-10-31T08:57:29;98931.28;;;15.73;78.49
71145;BME280;58812;47.698;17.726;2023-10-31T08:59:54;98921.56;;;15.66;78.89
71145;BME280;58812;47.698;17.726;2023-10-31T09:02:20;98910.97;;;15.58;79.75
71145;BME280;58812;47.698;17.726;2023-10-31T09:04:45;98905.78;;;15.56;80.12
71145;BME280;58812;47.698;17.726;2023-10-31T09:07:11;98901.22;;;15.57;80.06
71145;BME280;58812;47.698;17.726;2023-10-31T09:09:37;98899.38;;;15.50;81.42
71145;BME280;58812;47.698;17.726;2023-10-31T09:12:02;98894.38;;;15.47;81.40
71145;BME280;58812;47.698;17.726;2023-10-31T09:14:28;98891.28;;;15.50;81.25
71145;BME280;58812;47.698;17.726;2023-10-31T09:16:53;98879.84;;;15.55;81.68
71145;BME280;58812;47.698;17.726;2023-10-31T09:19:18;98869.50;;;15.45;82.72
71145;BME280;58812;47.698;17.726;2023-10-31T09:21:44;98892.94;;;15.52;82.49
71145;BME280;58812;47.698;17.726;2023-10-31T09:24:10;98915.75;;;15.49;83.47
71145;BME280;58812;47.698;17.726;2023-10-31T09:26:36;98911.81;;;15.45;83.75
71145;BME280;58812;47.698;17.726;2023-10-31T09:29:01;98920.75;;;15.45;83.48
71145;BME280;58812;47.698;17.726;2023-10-31T09:31:26;98931.97;;;15.42;83.93
71145;BME280;58812;47.698;17.726;2023-10-31T09:33:52;98918.69;;;15.34;84.17
71145;BME280;58812;47.698;17.726;2023-10-31T09:36:19;98916.63;;;15.36;84.52
71145;BME280;58812;47.698;17.726;2023-10-31T09:38:44;98918.69;;;15.34;84.68
71145;BME280;58812;47.698;17.726;2023-10-31T09:41:12;98909.38;;;15.30;86.15
71145;BME280;58812;47.698;17.726;2023-10-31T09:43:38;98907.91;;;15.28;86.23
71145;BME280;58812;47.698;17.726;2023-10-31T09:46:05;98890.28;;;15.32;85.97
71145;BME280;58812;47.698;17.726;2023-10-31T09:48:31;98892.97;;;15.32;86.30
71145;BME280;58812;47.698;17.726;2023-10-31T09:50:57;98904.81;;;15.31;86.49
71145;BME280;58812;47.698;17.726;2023-10-31T09:53:23;98918.69;;;15.28;87.19
71145;BME280;58812;47.698;17.726;2023-10-31T09:55:49;98923.69;;;15.31;88.24
71145;BME280;58812;47.698;17.726;2023-10-31T09:58:16;98912.69;;;15.32;89.46
71145;BME280;58812;47.698;17.726;2023-10-31T10:00:42;98917.03;;;15.33;88.95
71145;BME280;58812;47.698;17.726;2023-10-31T10:03:08;98900.03;;;15.33;90.45
71145;BME280;58812;47.698;17.726;2023-10-31T10:05:35;98896.72;;;15.31;91.21
71145;BME280;58812;47.698;17.726;2023-10-31T10:08:00;98887.38;;;15.27;92.15
71145;BME280;58812;47.698;17.726;2023-10-31T10:10:26;98881.78;;;15.21;93.53
71145;BME280;58812;47.698;17.726;2023-10-31T10:12:52;98886.38;;;15.21;93.09
71145;BME280;58812;47.698;17.726;2023-10-31T10:15:18;98871.03;;;15.08;96.54
71145;BME280;58812;47.698;17.726;2023-10-31T10:17:53;98880.59;;;14.98;99.71
71145;BME280;58812;47.698;17.726;2023-10-31T10:20:18;98861.91;;;15.09;97.60
71145;BME280;58812;47.698;17.726;2023-10-31T10:22:44;98856.56;;;14.83;98.68
71145;BME280;58812;47.698;17.726;2023-10-31T10:25:11;98848.66;;;14.81;100.00
71145;BME280;58812;47.698;17.726;2023-10-31T10:27:39;98832.94;;;14.85;98.84
71145;BME280;58812;47.698;17.726;2023-10-31T10:30:08;98824.25;;;14.83;99.22
71145;BME280;58812;47.698;17.726;2023-10-31T10:32:33;98822.56;;;14.75;97.37
71145;BME280;58812;47.698;17.726;2023-10-31T10:34:59;98826.72;;;14.64;97.72
71145;BME280;58812;47.698;17.726;2023-10-31T10:37:26;98831.06;;;14.52;97.34
71145;BME280;58812;47.698;17.726;2023-10-31T10:39:53;98808.06;;;14.43;96.65
71145;BME280;58812;47.698;17.726;2023-10-31T10:42:32;98824.22;;;14.23;95.74
71145;BME280;58812;47.698;17.726;2023-10-31T10:45:04;98829.59;;;14.23;96.33
71145;BME280;58812;47.698;17.726;2023-10-31T10:47:34;98839.09;;;14.12;93.43
71145;BME280;58812;47.698;17.726;2023-10-31T10:50:01;98854.59;;;14.10;93.93
71145;BME280;58812;47.698;17.726;2023-10-31T10:52:30;98849.41;;;14.02;93.70
71145;BME280;58812;47.698;17.726;2023-10-31T10:55:04;98868.44;;;13.94;94.49
71145;BME280;58812;47.698;17.726;2023-10-31T10:57:36;98880.16;;;13.80;94.97
71145;BME280;58812;47.698;17.726;2023-10-31T11:00:04;98877.25;;;13.75;95.67
71145;BME280;58812;47.698;17.726;2023-10-31T11:02:36;98868.31;;;13.68;95.99
71145;BME280;58812;47.698;17.726;2023-10-31T11:05:04;98858.59;;;13.67;98.31
71145;BME280;58812;47.698;17.726;2023-10-31T11:07:30;98862.88;;;13.48;100.00
71145;BME280;58812;47.698;17.726;2023-10-31T11:09:58;98856.34;;;13.22;100.00
71145;BME280;58812;47.698;17.726;2023-10-31T11:12:27;98862.56;;;13.01;100.00
71145;BME280;58812;47.698;17.726;2023-10-31T11:14:55;98893.28;;;12.92;100.00
71145;BME280;58812;47.698;17.726;2023-10-31T11:17:27;98917.25;;;12.66;100.00
71145;BME280;58812;47.698;17.726;2023-10-31T11:19:54;98927.16;;;12.44;100.00
71145;BME280;58812;47.698;17.726;2023-10-31T11:22:20;98937.19;;;12.35;100.00
71145;BME280;58812;47.698;17.726;2023-10-31T11:24:48;98936.84;;;12.23;100.00
71145;BME280;58812;47.698;17.726;2023-10-31T11:27:14;98926.34;;;12.07;100.00
71145;BME280;58812;47.698;17.726;2023-10-31T11:29:41;98902.25;;;11.92;100.00
71145;BME280;58812;47.698;17.726;2023-10-31T11:32:10;98877.59;;;11.82;100.00
71145;BME280;58812;47.698;17.726;2023-10-31T11:34:39;98876.47;;;11.62;100.00
71145;BME280;58812;47.698;17.726;2023-10-31T11:37:23;98881.94;;;11.54;100.00
71145;BME280;58812;47.698;17.726;2023-10-31T11:40:21;98882.41;;;11.42;100.00
71145;BME280;58812;47.698;17.726;2023-10-31T11:42:49;98858.28;;;11.42;100.00
71145;BME280;58812;47.698;17.726;2023-10-31T11:45:40;98850.25;;;11.42;100.00
71145;BME280;58812;47.698;17.726;2023-10-31T11:48:13;98867.63;;;11.46;100.00
71145;BME280;58812;47.698;17.726;2023-10-31T11:50:39;98884.44;;;11.40;100.00
71145;BME280;58812;47.698;17.726;2023-10-31T11:53:06;98913.25;;;11.38;100.00
71145;BME280;58812;47.698;17.726;2023-10-31T11:55:38;98939.41;;;11.36;100.00
71145;BME280;58812;47.698;17.726;2023-10-31T11:58:22;98943.75;;;11.37;100.00
71145;BME280;58812;47.698;17.726;2023-10-31T12:00:52;98939.59;;;11.35;100.00
71145;BME280;58812;47.698;17.726;2023-10-31T12:03:21;98955.22;;;11.31;100.00
71145;BME280;58812;47.698;17.726;2023-10-31T12:05:59;98966.00;;;11.23;100.00
71145;BME280;58812;47.698;17.726;2023-10-31T12:08:32;98988.28;;;11.23;100.00
71145;BME280;58812;47.698;17.726;2023-10-31T12:11:10;98996.84;;;11.19;100.00
71145;BME280;58812;47.698;17.726;2023-10-31T12:13:40;98994.91;;;11.13;100.00
71145;BME280;58812;47.698;17.726;2023-10-31T12:16:07;98992.41;;;11.11;100.00
71145;BME280;58812;47.698;17.726;2023-10-31T12:18:34;98998.59;;;11.12;100.00
71145;BME280;58812;47.698;17.726;2023-10-31T12:21:00;98981.59;;;11.05;100.00
71145;BME280;58812;47.698;17.726;2023-10-31T12:23:26;98986.66;;;11.00;100.00
71145;BME280;58812;47.698;17.726;2023-10-31T12:25:53;98975.66;;;10.94;100.00
71145;BME280;58812;47.698;17.726;2023-10-31T12:28:20;98971.37;;;10.85;100.00
71145;BME280;58812;47.698;17.726;2023-10-31T12:30:47;98992.31;;;10.82;100.00
71145;BME280;58812;47.698;17.726;2023-10-31T12:33:13;99015.22;;;10.84;100.00
71145;BME280;58812;47.698;17.726;2023-10-31T12:35:39;99021.75;;;10.82;100.00
71145;BME280;58812;47.698;17.726;2023-10-31T12:38:05;99026.31;;;10.73;100.00
71145;BME280;58812;47.698;17.726;2023-10-31T12:40:31;99027.66;;;10.77;100.00
71145;BME280;58812;47.698;17.726;2023-10-31T12:42:57;99018.84;;;10.68;100.00